createdAt,value
2022-09-24T00:00:39.857Z,25.10
2022-09-24T00:02:47.109Z,25.10
2022-09-24T00:04:54.439Z,25.10
2022-09-24T00:07:01.565Z,25.10
2022-09-24T00:09:23.282Z,25.10
2022-09-24T00:11:45.007Z,25.10
2022-09-24T00:13:52.436Z,25.10
2022-09-24T00:16:14.078Z,25.10
2022-09-24T00:18:33.946Z,25.10
2022-09-24T00:20:53.304Z,25.10
2022-09-24T00:23:13.338Z,25.10
2022-09-24T00:25:37.365Z,25.20
2022-09-24T00:27:45.980Z,25.10
2022-09-24T00:30:05.350Z,25.20
2022-09-24T00:32:24.935Z,25.10
2022-09-24T00:34:44.080Z,25.20
2022-09-24T00:36:51.214Z,25.20
2022-09-24T00:39:11.151Z,25.20
2022-09-24T00:41:33.375Z,25.20
2022-09-24T00:43:53.567Z,25.20
2022-09-24T00:46:19.789Z,25.20
2022-09-24T00:48:27.402Z,25.30
2022-09-24T00:50:47.054Z,25.30
2022-09-24T00:52:57.928Z,25.40
2022-09-24T00:55:19.442Z,25.40
2022-09-24T00:57:40.095Z,25.40
2022-09-24T01:00:01.307Z,25.40
2022-09-24T01:02:20.819Z,25.50
2022-09-24T01:04:30.255Z,25.50
2022-09-24T01:06:37.388Z,25.50
2022-09-24T01:08:58.143Z,25.50
2022-09-24T01:11:28.614Z,25.60
2022-09-24T01:14:06.564Z,25.50
2022-09-24T01:16:20.092Z,25.60
2022-09-24T01:18:44.390Z,25.60
2022-09-24T01:21:33.652Z,25.60
2022-09-24T01:24:02.848Z,25.60
2022-09-24T01:26:43.523Z,25.70
2022-09-24T01:29:07.343Z,25.70
2022-09-24T01:31:33.116Z,25.80
2022-09-24T01:33:56.266Z,25.80
2022-09-24T01:36:17.011Z,25.80
2022-09-24T01:38:28.098Z,25.90
2022-09-24T01:40:48.656Z,25.90
2022-09-24T01:43:09.581Z,25.90
2022-09-24T01:45:31.353Z,25.90
2022-09-24T01:47:42.687Z,25.90
2022-09-24T01:49:54.581Z,26.00
2022-09-24T01:52:04.263Z,25.90
2022-09-24T01:54:15.087Z,26.00
2022-09-24T01:56:40.284Z,26.00
2022-09-24T01:58:53.055Z,26.00
2022-09-24T02:01:15.808Z,26.00
2022-09-24T02:03:44.278Z,26.00
2022-09-24T02:05:55.003Z,26.00
2022-09-24T02:08:09.711Z,26.00
2022-09-24T02:10:19.652Z,26.00
2022-09-24T02:12:44.132Z,26.10
2022-09-24T02:15:08.210Z,26.10
2022-09-24T02:17:31.573Z,26.10
2022-09-24T02:19:53.547Z,26.10
2022-09-24T02:22:13.325Z,26.20
2022-09-24T02:24:40.593Z,26.10
2022-09-24T02:26:47.757Z,26.20
2022-09-24T02:29:07.386Z,26.20
2022-09-24T02:31:32.353Z,26.20
2022-09-24T02:34:10.864Z,26.20
2022-09-24T02:36:20.646Z,26.30
2022-09-24T02:38:40.129Z,26.30
2022-09-24T02:40:59.990Z,26.30
2022-09-24T02:43:07.588Z,26.30
2022-09-24T02:45:15.739Z,26.40
2022-09-24T02:47:35.360Z,26.40
2022-09-24T02:49:54.525Z,26.40
2022-09-24T02:52:15.895Z,26.40
2022-09-24T02:54:23.231Z,26.40
2022-09-24T02:56:30.504Z,26.40
2022-09-24T02:58:49.839Z,26.50
2022-09-24T03:01:09.955Z,26.50
2022-09-24T03:03:17.040Z,26.60
2022-09-24T03:05:36.663Z,26.60
2022-09-24T03:07:45.530Z,26.80
2022-09-24T03:10:04.749Z,26.80
2022-09-24T03:12:11.973Z,26.70
2022-09-24T03:14:19.368Z,26.80
2022-09-24T03:16:38.798Z,26.90
2022-09-24T03:18:58.507Z,27.00
2022-09-24T03:21:07.429Z,27.00
2022-09-24T03:23:16.255Z,27.10
2022-09-24T03:25:24.453Z,27.20
2022-09-24T03:27:43.730Z,27.20
2022-09-24T03:30:19.318Z,27.20
2022-09-24T03:32:39.709Z,27.30
2022-09-24T03:34:58.920Z,27.40
2022-09-24T03:37:18.493Z,27.40
2022-09-24T03:39:27.213Z,27.40
2022-09-24T03:41:46.784Z,27.50
2022-09-24T03:44:06.255Z,27.50
2022-09-24T03:46:15.527Z,27.50
2022-09-24T03:48:23.845Z,27.50
2022-09-24T03:50:31.228Z,27.50
2022-09-24T03:52:38.272Z,27.50
2022-09-24T03:54:47.136Z,27.50
2022-09-24T03:56:54.103Z,27.40
2022-09-24T03:59:14.239Z,27.40
2022-09-24T04:01:34.247Z,27.40
2022-09-24T04:03:54.259Z,27.40
2022-09-24T04:06:01.130Z,27.50
2022-09-24T04:08:08.828Z,27.40
2022-09-24T04:10:17.488Z,27.50
2022-09-24T04:12:24.872Z,27.50
2022-09-24T04:14:43.857Z,27.60
2022-09-24T04:16:51.374Z,27.70
2022-09-24T04:18:59.122Z,27.80
2022-09-24T04:21:06.355Z,27.80
2022-09-24T04:23:26.124Z,27.90
2022-09-24T04:25:47.390Z,27.80
2022-09-24T04:27:57.949Z,27.90
2022-09-24T04:30:05.041Z,28.00
2022-09-24T04:32:12.311Z,28.10
2022-09-24T04:34:31.587Z,28.20
2022-09-24T04:36:39.025Z,28.20
2022-09-24T04:38:58.330Z,28.20
2022-09-24T04:41:13.606Z,28.20
2022-09-24T04:43:21.303Z,28.10
2022-09-24T04:45:41.589Z,28.10
2022-09-24T04:48:01.469Z,28.00
2022-09-24T04:50:09.364Z,28.00
2022-09-24T04:52:17.770Z,27.90
2022-09-24T04:54:24.906Z,27.90
2022-09-24T04:56:33.829Z,28.00
2022-09-24T04:58:41.064Z,28.10
2022-09-24T05:01:00.434Z,28.10
2022-09-24T05:03:20.304Z,28.00
2022-09-24T05:05:27.182Z,27.90
2022-09-24T05:07:46.567Z,27.80
2022-09-24T05:09:53.941Z,27.60
2022-09-24T05:12:02.705Z,27.50
2022-09-24T05:14:09.936Z,27.50
2022-09-24T05:16:29.088Z,27.40
2022-09-24T05:18:37.264Z,27.30
2022-09-24T05:20:44.332Z,27.30
2022-09-24T05:22:52.895Z,27.20
2022-09-24T05:25:00.096Z,27.20
2022-09-24T05:27:20.892Z,27.20
2022-09-24T05:29:41.174Z,27.20
2022-09-24T05:32:01.769Z,27.10
2022-09-24T05:34:08.702Z,27.10
2022-09-24T05:36:15.776Z,27.10
2022-09-24T05:38:22.797Z,27.10
2022-09-24T05:40:45.982Z,27.10
2022-09-24T05:43:07.570Z,27.20
2022-09-24T05:45:15.119Z,27.20
2022-09-24T05:47:34.327Z,27.20
2022-09-24T05:49:53.907Z,27.30
2022-09-24T05:52:13.162Z,27.40
2022-09-24T05:54:32.374Z,27.50
2022-09-24T05:56:51.587Z,27.60
2022-09-24T05:59:12.706Z,27.70
2022-09-24T06:01:20.139Z,27.70
2022-09-24T06:03:27.185Z,27.70
2022-09-24T06:05:49.659Z,27.80
2022-09-24T06:08:09.847Z,27.90
2022-09-24T06:10:29.308Z,28.00
2022-09-24T06:12:36.861Z,28.10
2022-09-24T06:14:57.761Z,28.20
2022-09-24T06:17:16.766Z,28.20
2022-09-24T06:19:38.127Z,28.30
2022-09-24T06:21:45.051Z,28.30
2022-09-24T06:23:52.899Z,28.40
2022-09-24T06:26:00.246Z,28.50
2022-09-24T06:28:08.343Z,28.50
2022-09-24T06:30:17.269Z,28.50
2022-09-24T06:32:36.639Z,28.50
2022-09-24T06:34:59.191Z,28.50
2022-09-24T06:37:19.047Z,28.50
2022-09-24T06:39:27.155Z,28.50
2022-09-24T06:41:34.131Z,28.50
2022-09-24T06:43:41.216Z,28.50
2022-09-24T06:45:50.393Z,28.40
2022-09-24T06:48:10.485Z,28.40
2022-09-24T06:50:31.579Z,28.40
2022-09-24T06:52:50.899Z,28.50
2022-09-24T06:55:10.927Z,28.50
2022-09-24T06:57:30.300Z,28.60
2022-09-24T06:59:37.276Z,28.60
2022-09-24T07:01:58.659Z,28.60
2022-09-24T07:04:06.133Z,28.70
2022-09-24T07:06:13.458Z,28.80
2022-09-24T07:08:21.004Z,28.90
2022-09-24T07:10:29.154Z,29.00
2022-09-24T07:12:48.476Z,29.00
2022-09-24T07:14:55.758Z,29.10
2022-09-24T07:17:04.234Z,29.10
2022-09-24T07:19:23.693Z,29.30
2022-09-24T07:21:30.773Z,29.30
2022-09-24T07:23:37.848Z,29.30
2022-09-24T07:25:44.921Z,29.40
2022-09-24T07:28:08.097Z,29.40
2022-09-24T07:30:15.721Z,29.50
2022-09-24T07:32:36.728Z,29.40
2022-09-24T07:34:56.431Z,29.40
2022-09-24T07:37:03.858Z,29.50
2022-09-24T07:39:23.259Z,29.50
2022-09-24T07:41:30.800Z,29.50
2022-09-24T07:43:50.937Z,29.50
2022-09-24T07:46:10.460Z,29.60
2022-09-24T07:48:19.231Z,29.50
2022-09-24T07:50:41.818Z,29.40
2022-09-24T07:52:54.690Z,29.30
2022-09-24T07:55:14.049Z,29.30
2022-09-24T07:57:21.079Z,29.20
2022-09-24T07:59:28.163Z,29.20
2022-09-24T08:01:35.872Z,29.10
2022-09-24T08:03:57.741Z,29.10
2022-09-24T08:06:04.959Z,29.00
2022-09-24T08:08:24.278Z,29.00
2022-09-24T08:10:32.507Z,29.00
2022-09-24T08:12:51.710Z,28.90
2022-09-24T08:15:11.227Z,28.90
2022-09-24T08:17:18.352Z,28.80
2022-09-24T08:19:40.938Z,28.80
2022-09-24T08:21:49.661Z,28.80
2022-09-24T08:24:09.333Z,28.90
2022-09-24T08:26:16.877Z,28.80
2022-09-24T08:28:36.248Z,28.80
2022-09-24T08:30:44.100Z,28.90
2022-09-24T08:33:03.449Z,28.90
2022-09-24T08:35:13.186Z,28.90
2022-09-24T08:37:32.726Z,28.80
2022-09-24T08:39:39.638Z,28.80
2022-09-24T08:42:02.151Z,28.80
2022-09-24T08:44:40.649Z,28.80
2022-09-24T08:47:19.930Z,28.80
2022-09-24T08:49:31.109Z,28.80
2022-09-24T08:51:44.542Z,28.80
2022-09-24T08:54:09.196Z,28.80
2022-09-24T08:56:17.688Z,28.80
2022-09-24T08:58:43.456Z,28.90
2022-09-24T09:00:57.039Z,28.90
2022-09-24T09:03:11.786Z,28.80
2022-09-24T09:05:28.866Z,28.90
2022-09-24T09:07:57.954Z,28.80
2022-09-24T09:10:08.156Z,28.90
2022-09-24T09:12:33.469Z,28.90
2022-09-24T09:14:46.844Z,28.90
2022-09-24T09:16:58.476Z,28.90
2022-09-24T09:19:12.019Z,28.90
2022-09-24T09:21:22.114Z,28.90
2022-09-24T09:23:49.976Z,28.90
2022-09-24T09:25:59.512Z,28.90
2022-09-24T09:28:11.354Z,28.80
2022-09-24T09:30:21.876Z,28.80
2022-09-24T09:32:51.369Z,28.80
2022-09-24T09:35:06.283Z,28.80
2022-09-24T09:37:32.315Z,28.80
2022-09-24T09:40:01.298Z,28.80
2022-09-24T09:42:33.210Z,28.70
2022-09-24T09:44:44.390Z,28.70
2022-09-24T09:46:58.776Z,28.70
2022-09-24T09:49:09.750Z,28.70
2022-09-24T09:51:35.880Z,28.70
2022-09-24T09:54:02.844Z,28.70
2022-09-24T09:56:12.213Z,28.70
2022-09-24T09:58:25.175Z,28.70
2022-09-24T10:00:45.054Z,28.70
2022-09-24T10:02:55.235Z,28.70
2022-09-24T10:05:27.380Z,28.70
2022-09-24T10:07:34.653Z,28.70
2022-09-24T10:10:05.034Z,28.70
2022-09-24T10:12:19.651Z,28.70
2022-09-24T10:14:26.616Z,28.70
2022-09-24T10:16:47.633Z,28.70
2022-09-24T10:18:54.960Z,28.60
2022-09-24T10:21:05.115Z,28.60
2022-09-24T10:23:29.440Z,28.60
2022-09-24T10:25:54.746Z,28.60
2022-09-24T10:28:35.419Z,28.60
2022-09-24T10:30:53.537Z,28.50
2022-09-24T10:33:12.716Z,28.50
2022-09-24T10:35:26.808Z,28.50
2022-09-24T10:37:55.541Z,28.50
2022-09-24T10:40:18.232Z,28.50
2022-09-24T10:42:28.660Z,28.40
2022-09-24T10:44:52.813Z,28.40
2022-09-24T10:47:25.672Z,28.40
2022-09-24T10:49:46.355Z,28.30
2022-09-24T10:52:12.434Z,28.30
2022-09-24T10:54:35.486Z,28.30
2022-09-24T10:56:56.909Z,28.30
2022-09-24T10:59:47.298Z,28.30
2022-09-24T11:02:08.982Z,28.20
2022-09-24T11:04:55.573Z,28.20
2022-09-24T11:07:48.600Z,28.20
2022-09-24T11:10:20.403Z,28.20
2022-09-24T11:12:50.151Z,28.20
2022-09-24T11:15:18.736Z,28.10
2022-09-24T11:17:42.911Z,28.10
2022-09-24T11:20:07.605Z,28.10
2022-09-24T11:22:17.808Z,28.10
2022-09-24T11:24:59.704Z,28.00
2022-09-24T11:27:22.813Z,28.00
2022-09-24T11:29:55.284Z,27.90
2022-09-24T11:32:12.714Z,27.50
2022-09-24T11:34:44.153Z,27.20
2022-09-24T11:37:18.027Z,26.80
2022-09-24T11:39:37.651Z,26.20
2022-09-24T11:42:07.502Z,25.80
2022-09-24T11:45:02.149Z,25.70
2022-09-24T11:47:34.721Z,25.70
2022-09-24T11:50:01.409Z,25.70
2022-09-24T11:52:13.569Z,25.80
2022-09-24T11:54:27.191Z,25.90
2022-09-24T11:56:50.506Z,26.00
2022-09-24T11:59:01.417Z,26.00
2022-09-24T12:01:24.343Z,26.00
2022-09-24T12:03:40.212Z,25.90
2022-09-24T12:05:53.429Z,26.00
2022-09-24T12:08:04.295Z,25.90
2022-09-24T12:10:36.877Z,25.80
2022-09-24T12:12:46.356Z,25.70
2022-09-24T12:15:08.394Z,25.60
2022-09-24T12:17:22.020Z,25.40
2022-09-24T12:19:35.189Z,25.20
2022-09-24T12:21:47.055Z,25.20
2022-09-24T12:24:02.478Z,25.10
2022-09-24T12:26:25.313Z,25.00
2022-09-24T12:28:57.034Z,25.00
2022-09-24T12:31:22.265Z,25.00
2022-09-24T12:33:46.814Z,24.90
2022-09-24T12:36:12.479Z,24.90
2022-09-24T12:38:37.010Z,24.90
2022-09-24T12:41:29.823Z,25.00
2022-09-24T12:43:53.021Z,25.00
2022-09-24T12:46:22.074Z,25.00
2022-09-24T12:48:42.825Z,25.00
2022-09-24T12:51:02.078Z,25.00
2022-09-24T12:53:27.593Z,25.00
2022-09-24T12:56:03.185Z,24.90
2022-09-24T13:01:28.912Z,24.90
2022-09-24T13:04:45.326Z,24.90
2022-09-24T13:06:57.620Z,24.90
2022-09-24T13:09:26.212Z,24.80
2022-09-24T13:11:48.249Z,24.80
2022-09-24T13:14:22.764Z,24.80
2022-09-24T13:16:44.075Z,24.70
2022-09-24T13:18:57.366Z,24.70
2022-09-24T13:21:25.476Z,24.70
2022-09-24T13:23:50.077Z,24.80
2022-09-24T13:26:01.396Z,24.80
2022-09-24T13:28:38.660Z,24.80
2022-09-24T13:30:47.505Z,24.80
2022-09-24T13:33:18.802Z,24.90
2022-09-24T13:35:30.074Z,24.90
2022-09-24T13:37:57.543Z,24.90
2022-09-24T13:40:21.777Z,24.90
2022-09-24T13:42:48.916Z,24.90
2022-09-24T13:45:14.628Z,24.90
2022-09-24T13:47:40.057Z,24.90
2022-09-24T13:50:06.371Z,24.90
2022-09-24T13:52:33.682Z,24.90
2022-09-24T13:54:56.519Z,24.90
2022-09-24T13:57:17.577Z,25.00
2022-09-24T13:59:24.596Z,25.00
2022-09-24T14:01:38.547Z,25.00
2022-09-24T14:03:54.180Z,25.10
2022-09-24T14:06:17.847Z,25.10
2022-09-24T14:08:28.608Z,25.10
2022-09-24T14:10:37.227Z,25.10
2022-09-24T14:12:44.558Z,25.10
2022-09-24T14:14:59.267Z,25.10
2022-09-24T14:17:20.684Z,25.10
2022-09-24T14:19:40.172Z,25.10
2022-09-24T14:21:50.826Z,25.10
2022-09-24T14:24:01.485Z,25.10
2022-09-24T14:26:29.753Z,25.20
2022-09-24T14:28:38.179Z,25.20
2022-09-24T14:30:53.562Z,25.20
2022-09-24T14:33:06.829Z,25.20
2022-09-24T14:35:32.692Z,25.10
2022-09-24T14:37:54.774Z,25.20
2022-09-24T14:40:19.419Z,25.20
2022-09-24T14:42:30.376Z,25.20
2022-09-24T14:44:38.845Z,25.20
2022-09-24T14:46:53.020Z,25.30
2022-09-24T14:49:20.133Z,25.30
2022-09-24T14:51:31.620Z,25.30
2022-09-24T14:54:01.694Z,25.30
2022-09-24T14:56:24.279Z,25.30
2022-09-24T14:58:39.088Z,25.20
2022-09-24T15:00:52.726Z,25.20
2022-09-24T15:03:17.730Z,25.20
2022-09-24T15:05:39.147Z,25.20
2022-09-24T15:07:47.798Z,25.10
2022-09-24T15:10:09.166Z,25.10
2022-09-24T15:12:23.783Z,25.10
2022-09-24T15:14:37.253Z,25.10
2022-09-24T15:16:58.312Z,25.10
2022-09-24T15:19:22.440Z,25.10
2022-09-24T15:21:31.253Z,25.10
2022-09-24T15:23:50.982Z,25.10
2022-09-24T15:25:58.007Z,25.10
2022-09-24T15:28:18.261Z,25.10
2022-09-24T15:30:40.558Z,25.10
2022-09-24T15:32:59.179Z,25.10
2022-09-24T15:35:09.801Z,25.10
2022-09-24T15:37:22.150Z,25.10
2022-09-24T15:39:49.614Z,25.10
2022-09-24T15:41:56.998Z,25.10
2022-09-24T15:44:04.701Z,25.10
2022-09-24T15:46:11.631Z,25.10
2022-09-24T15:48:19.016Z,25.10
2022-09-24T15:50:38.321Z,25.10
2022-09-24T15:52:51.951Z,25.00
2022-09-24T15:55:00.715Z,25.10
2022-09-24T15:57:20.460Z,25.10
2022-09-24T15:59:39.555Z,25.10
2022-09-24T16:01:46.701Z,25.10
2022-09-24T16:03:55.156Z,25.20
2022-09-24T16:06:16.063Z,25.20
2022-09-24T16:08:25.075Z,25.20
2022-09-24T16:10:32.415Z,25.20
2022-09-24T16:12:39.695Z,25.20
2022-09-24T16:14:46.980Z,25.20
2022-09-24T16:16:53.752Z,25.20
2022-09-24T16:19:13.471Z,25.20
2022-09-24T16:21:20.702Z,25.20
2022-09-24T16:23:41.566Z,25.10
2022-09-24T16:25:59.343Z,25.10
2022-09-24T16:28:18.705Z,25.20
2022-09-24T16:30:26.262Z,25.10
2022-09-24T16:32:45.526Z,25.10
2022-09-24T16:35:05.253Z,25.10
2022-09-24T16:37:12.468Z,25.20
2022-09-24T16:39:21.286Z,25.20
2022-09-24T16:41:28.371Z,25.20
2022-09-24T16:43:47.583Z,25.20
2022-09-24T16:46:08.267Z,25.20
2022-09-24T16:48:27.660Z,25.20
2022-09-24T16:50:46.810Z,25.20
2022-09-24T16:52:56.051Z,25.20
2022-09-24T16:55:17.250Z,25.20
2022-09-24T16:57:38.669Z,25.20
2022-09-24T16:59:57.931Z,25.20
2022-09-24T17:02:17.705Z,25.20
2022-09-24T17:04:24.684Z,25.20
2022-09-24T17:06:45.703Z,25.20
2022-09-24T17:09:09.174Z,25.30
2022-09-24T17:11:18.297Z,25.30
2022-09-24T17:13:25.514Z,25.20
2022-09-24T17:15:32.733Z,25.20
2022-09-24T17:17:45.646Z,25.20
2022-09-24T17:19:55.452Z,25.20
2022-09-24T17:22:14.779Z,25.20
2022-09-24T17:24:22.563Z,25.20
2022-09-24T17:26:43.830Z,25.20
2022-09-24T17:29:03.263Z,25.10
2022-09-24T17:31:12.224Z,25.10
2022-09-24T17:33:41.795Z,25.20
2022-09-24T17:35:56.329Z,25.20
2022-09-24T17:38:03.714Z,25.20
2022-09-24T17:40:24.328Z,25.30
2022-09-24T17:42:46.907Z,25.30
2022-09-24T17:45:06.220Z,25.30
2022-09-24T17:47:45.607Z,25.30
2022-09-24T17:49:52.787Z,25.30
2022-09-24T17:52:14.512Z,25.30
2022-09-24T17:54:24.425Z,25.30
2022-09-24T17:56:44.388Z,25.30
2022-09-24T17:59:05.597Z,25.30
2022-09-24T18:01:26.845Z,25.30
2022-09-24T18:03:33.998Z,25.30
2022-09-24T18:05:53.463Z,25.40
2022-09-24T18:08:13.292Z,25.40
2022-09-24T18:10:32.714Z,25.40
2022-09-24T18:12:51.868Z,25.40
2022-09-24T18:15:00.894Z,25.40
2022-09-24T18:17:20.157Z,25.40
2022-09-24T18:19:27.463Z,25.30
2022-09-24T18:21:47.378Z,25.30
2022-09-24T18:24:06.995Z,25.40
2022-09-24T18:26:27.749Z,25.40
2022-09-24T18:28:51.366Z,25.40
2022-09-24T18:31:14.337Z,25.40
2022-09-24T18:33:21.564Z,25.40
2022-09-24T18:35:40.922Z,25.40
2022-09-24T18:37:48.455Z,25.40
2022-09-24T18:39:55.340Z,25.30
2022-09-24T18:42:14.748Z,25.30
2022-09-24T18:44:22.345Z,25.30
2022-09-24T18:46:32.961Z,25.30
2022-09-24T18:48:53.957Z,25.40
2022-09-24T18:51:20.092Z,25.40
2022-09-24T18:53:27.266Z,25.40
2022-09-24T18:55:47.193Z,25.40
2022-09-24T18:58:06.365Z,25.40
2022-09-24T19:00:42.213Z,25.40
2022-09-24T19:02:51.080Z,25.40
2022-09-24T19:04:58.373Z,25.40
2022-09-24T19:07:05.290Z,25.40
2022-09-24T19:09:14.473Z,25.40
2022-09-24T19:11:34.865Z,25.40
2022-09-24T19:13:55.824Z,25.40
2022-09-24T19:16:08.483Z,25.40
2022-09-24T19:18:18.529Z,25.40
2022-09-24T19:20:40.622Z,25.40
2022-09-24T19:23:01.253Z,25.40
2022-09-24T19:25:09.002Z,25.40
2022-09-24T19:27:15.871Z,25.40
2022-09-24T19:29:35.099Z,25.40
2022-09-24T19:31:54.557Z,25.40
2022-09-24T19:34:16.797Z,25.40
2022-09-24T19:36:43.346Z,25.40
2022-09-24T19:38:51.715Z,25.40
2022-09-24T19:41:03.267Z,25.40
2022-09-24T19:43:10.464Z,25.50
2022-09-24T19:45:30.908Z,25.40
2022-09-24T19:47:50.572Z,25.40
2022-09-24T19:49:59.131Z,25.40
2022-09-24T19:52:18.500Z,25.40
2022-09-24T19:54:37.715Z,25.40
2022-09-24T19:56:57.184Z,25.40
2022-09-24T19:59:04.933Z,25.40
2022-09-24T20:01:24.971Z,25.40
2022-09-24T20:03:32.253Z,25.40
2022-09-24T20:05:42.706Z,25.40
2022-09-24T20:07:50.559Z,25.40
2022-09-24T20:10:10.846Z,25.40
2022-09-24T20:12:30.667Z,25.40
2022-09-24T20:14:37.646Z,25.40
2022-09-24T20:16:45.797Z,25.40
2022-09-24T20:19:06.147Z,25.40
2022-09-24T20:21:28.797Z,25.30
2022-09-24T20:23:48.564Z,25.30
2022-09-24T20:26:12.810Z,25.30
2022-09-24T20:28:19.612Z,25.30
2022-09-24T20:30:26.593Z,25.30
2022-09-24T20:32:33.532Z,25.30
2022-09-24T20:34:53.447Z,25.30
2022-09-24T20:37:02.679Z,25.30
2022-09-24T20:39:22.571Z,25.30
2022-09-24T20:41:29.692Z,25.20
2022-09-24T20:43:49.467Z,25.20
2022-09-24T20:46:15.162Z,25.20
2022-09-24T20:48:22.159Z,25.20
2022-09-24T20:50:41.478Z,25.20
2022-09-24T20:53:02.527Z,25.20
2022-09-24T20:55:10.683Z,25.10
2022-09-24T20:57:29.998Z,25.10
2022-09-24T20:59:36.786Z,25.10
2022-09-24T21:01:56.677Z,25.10
2022-09-24T21:04:04.543Z,25.10
2022-09-24T21:06:12.912Z,25.10
2022-09-24T21:08:35.350Z,25.10
2022-09-24T21:11:04.346Z,25.10
2022-09-24T21:13:11.333Z,25.10
2022-09-24T21:15:30.935Z,25.00
2022-09-24T21:17:38.174Z,25.10
2022-09-24T21:19:57.595Z,25.10
2022-09-24T21:22:16.808Z,25.10
2022-09-24T21:24:31.131Z,25.10
2022-09-24T21:26:40.247Z,25.10
2022-09-24T21:29:02.779Z,25.10
2022-09-24T21:31:24.099Z,25.10
2022-09-24T21:33:31.377Z,25.00
2022-09-24T21:35:38.704Z,25.00
2022-09-24T21:37:45.941Z,25.10
2022-09-24T21:39:54.725Z,25.00
2022-09-24T21:42:14.034Z,25.00
2022-09-24T21:44:22.445Z,25.00
2022-09-24T21:46:32.294Z,25.00
2022-09-24T21:48:39.669Z,25.00
2022-09-24T21:51:04.764Z,25.00
2022-09-24T21:53:11.741Z,25.00
2022-09-24T21:55:20.721Z,25.00
2022-09-24T21:57:28.115Z,25.00
2022-09-24T22:00:11.444Z,25.00
2022-09-24T22:02:32.520Z,25.00
2022-09-24T22:04:51.853Z,25.00
2022-09-24T22:07:11.171Z,25.00
2022-09-24T22:09:30.742Z,24.90
2022-09-24T22:11:39.787Z,25.00
2022-09-24T22:13:47.068Z,25.00
2022-09-24T22:16:06.828Z,25.00
2022-09-24T22:18:26.299Z,25.00
2022-09-24T22:20:46.694Z,25.00
2022-09-24T22:23:05.800Z,25.00
2022-09-24T22:25:13.404Z,25.00
2022-09-24T22:27:22.217Z,25.00
2022-09-24T22:29:41.529Z,25.00
2022-09-24T22:31:48.607Z,24.90
2022-09-24T22:34:12.560Z,25.00
2022-09-24T22:36:32.614Z,25.00
2022-09-24T22:38:54.503Z,24.90
2022-09-24T22:41:14.421Z,24.90
2022-09-24T22:43:35.793Z,24.90
2022-09-24T22:45:44.651Z,24.90
2022-09-24T22:48:04.388Z,24.90
2022-09-24T22:50:12.488Z,24.90
2022-09-24T22:52:32.115Z,24.90
2022-09-24T22:54:39.243Z,24.90
2022-09-24T22:56:46.278Z,25.00
2022-09-24T22:59:07.343Z,25.00
2022-09-24T23:01:28.711Z,25.00
2022-09-24T23:03:36.238Z,24.90
2022-09-24T23:05:55.550Z,25.00
2022-09-24T23:08:14.767Z,25.00
2022-09-24T23:10:34.129Z,25.00
2022-09-24T23:12:41.068Z,25.00
2022-09-24T23:14:53.611Z,25.00
2022-09-24T23:17:13.166Z,25.00
2022-09-24T23:19:21.694Z,25.00
2022-09-24T23:21:40.816Z,25.00
2022-09-24T23:24:01.532Z,25.00
2022-09-24T23:26:24.207Z,25.00
2022-09-24T23:28:42.440Z,25.00
2022-09-24T23:31:00.745Z,25.00
2022-09-24T23:33:20.047Z,25.00
2022-09-24T23:35:39.229Z,25.00
2022-09-24T23:37:58.427Z,24.90
2022-09-24T23:40:17.811Z,24.90
2022-09-24T23:42:25.385Z,25.00
2022-09-24T23:44:32.307Z,25.00
2022-09-24T23:46:41.027Z,25.00
2022-09-24T23:49:00.668Z,25.00
2022-09-24T23:51:19.918Z,25.00
2022-09-24T23:53:39.540Z,25.00
2022-09-24T23:55:59.120Z,25.00
2022-09-24T23:58:06.142Z,25.00
